sensor_id;sensor_type;location;lat;lon;timestamp;temperature;humidity
7958;DHT22;4024;52.172;5.378;2023-04-01T00:00:22;13.00;99.90
7958;DHT22;4024;52.172;5.378;2023-04-01T00:02:48;13.00;99.90
7958;DHT22;4024;52.172;5.378;2023-04-01T00:05:14;13.00;99.90
7958;DHT22;4024;52.172;5.378;2023-04-01T00:07:40;13.00;99.90
7958;DHT22;4024;52.172;5.378;2023-04-01T00:10:07;13.00;99.90
7958;DHT22;4024;52.172;5.378;2023-04-01T00:12:34;13.00;99.90
7958;DHT22;4024;52.172;5.378;2023-04-01T00:15:00;13.00;99.90
7958;DHT22;4024;52.172;5.378;2023-04-01T00:17:26;13.00;99.90
7958;DHT22;4024;52.172;5.378;2023-04-01T00:19:54;13.00;99.90
7958;DHT22;4024;52.172;5.378;2023-04-01T00:22:19;13.00;99.90
7958;DHT22;4024;52.172;5.378;2023-04-01T00:24:45;13.00;99.90
7958;DHT22;4024;52.172;5.378;2023-04-01T00:27:11;12.90;99.90
7958;DHT22;4024;52.172;5.378;2023-04-01T00:29:36;13.00;99.90
7958;DHT22;4024;52.172;5.378;2023-04-01T00:32:02;12.90;99.90
7958;DHT22;4024;52.172;5.378;2023-04-01T00:34:28;12.90;99.90
7958;DHT22;4024;52.172;5.378;2023-04-01T00:36:53;12.90;99.90
7958;DHT22;4024;52.172;5.378;2023-04-01T00:39:21;12.90;99.90
7958;DHT22;4024;52.172;5.378;2023-04-01T00:41:47;12.90;99.90
7958;DHT22;4024;52.172;5.378;2023-04-01T00:44:24;12.90;99.90
7958;DHT22;4024;52.172;5.378;2023-04-01T00:46:50;12.90;99.90
7958;DHT22;4024;52.172;5.378;2023-04-01T00:49:19;12.90;99.90
7958;DHT22;4024;52.172;5.378;2023-04-01T00:51:47;12.80;99.90
7958;DHT22;4024;52.172;5.378;2023-04-01T00:54:14;12.80;99.90
7958;DHT22;4024;52.172;5.378;2023-04-01T00:56:54;12.80;99.90
7958;DHT22;4024;52.172;5.378;2023-04-01T00:59:26;12.80;99.90
7958;DHT22;4024;52.172;5.378;2023-04-01T01:01:53;12.80;99.90
7958;DHT22;4024;52.172;5.378;2023-04-01T01:04:25;12.80;99.90
7958;DHT22;4024;52.172;5.378;2023-04-01T01:13:04;12.80;99.90
7958;DHT22;4024;52.172;5.378;2023-04-01T01:15:46;12.70;99.90
7958;DHT22;4024;52.172;5.378;2023-04-01T01:26:38;12.70;99.90
7958;DHT22;4024;52.172;5.378;2023-04-01T01:31:50;12.70;99.90
7958;DHT22;4024;52.172;5.378;2023-04-01T01:34:40;12.60;99.90
7958;DHT22;4024;52.172;5.378;2023-04-01T01:37:14;12.60;99.90
7958;DHT22;4024;52.172;5.378;2023-04-01T01:39:42;12.50;99.90
7958;DHT22;4024;52.172;5.378;2023-04-01T01:42:11;12.60;99.90
7958;DHT22;4024;52.172;5.378;2023-04-01T01:44:39;12.60;99.90
7958;DHT22;4024;52.172;5.378;2023-04-01T01:47:05;12.60;99.90
7958;DHT22;4024;52.172;5.378;2023-04-01T01:49:32;12.50;99.90
7958;DHT22;4024;52.172;5.378;2023-04-01T01:51:59;12.60;99.90
7958;DHT22;4024;52.172;5.378;2023-04-01T01:54:25;12.50;99.90
7958;DHT22;4024;52.172;5.378;2023-04-01T01:57:06;12.50;99.90
7958;DHT22;4024;52.172;5.378;2023-04-01T01:59:35;12.50;99.90
7958;DHT22;4024;52.172;5.378;2023-04-01T02:02:03;12.60;99.90
7958;DHT22;4024;52.172;5.378;2023-04-01T02:04:35;12.50;99.90
7958;DHT22;4024;52.172;5.378;2023-04-01T02:07:08;12.50;99.90
7958;DHT22;4024;52.172;5.378;2023-04-01T02:09:37;12.50;99.90
7958;DHT22;4024;52.172;5.378;2023-04-01T02:12:12;12.40;99.90
7958;DHT22;4024;52.172;5.378;2023-04-01T02:14:43;12.50;99.90
7958;DHT22;4024;52.172;5.378;2023-04-01T02:17:14;12.40;99.90
7958;DHT22;4024;52.172;5.378;2023-04-01T02:19:51;12.40;99.90
7958;DHT22;4024;52.172;5.378;2023-04-01T02:22:24;12.40;99.90
7958;DHT22;4024;52.172;5.378;2023-04-01T02:24:54;12.40;99.90
7958;DHT22;4024;52.172;5.378;2023-04-01T02:27:23;12.40;99.90
7958;DHT22;4024;52.172;5.378;2023-04-01T02:29:50;12.40;99.90
7958;DHT22;4024;52.172;5.378;2023-04-01T02:32:17;12.40;99.90
7958;DHT22;4024;52.172;5.378;2023-04-01T02:34:44;12.40;99.90
7958;DHT22;4024;52.172;5.378;2023-04-01T02:37:11;12.40;99.90
7958;DHT22;4024;52.172;5.378;2023-04-01T02:39:38;12.40;99.90
7958;DHT22;4024;52.172;5.378;2023-04-01T02:42:05;12.40;99.90
7958;DHT22;4024;52.172;5.378;2023-04-01T02:44:31;12.30;99.90
7958;DHT22;4024;52.172;5.378;2023-04-01T02:46:57;12.40;99.90
7958;DHT22;4024;52.172;5.378;2023-04-01T02:49:23;12.40;99.90
7958;DHT22;4024;52.172;5.378;2023-04-01T02:51:49;12.40;99.90
7958;DHT22;4024;52.172;5.378;2023-04-01T02:54:14;12.40;99.90
7958;DHT22;4024;52.172;5.378;2023-04-01T02:56:40;12.40;99.90
7958;DHT22;4024;52.172;5.378;2023-04-01T02:59:06;12.40;99.90
7958;DHT22;4024;52.172;5.378;2023-04-01T03:01:31;12.40;99.90
7958;DHT22;4024;52.172;5.378;2023-04-01T03:03:57;12.40;99.90
7958;DHT22;4024;52.172;5.378;2023-04-01T03:06:23;12.40;99.90
7958;DHT22;4024;52.172;5.378;2023-04-01T03:08:48;12.40;99.90
7958;DHT22;4024;52.172;5.378;2023-04-01T03:11:14;12.40;99.90
7958;DHT22;4024;52.172;5.378;2023-04-01T03:13:40;12.40;99.90
7958;DHT22;4024;52.172;5.378;2023-04-01T03:16:06;12.40;99.90
7958;DHT22;4024;52.172;5.378;2023-04-01T03:18:32;12.40;99.90
7958;DHT22;4024;52.172;5.378;2023-04-01T03:21:11;12.40;99.90
7958;DHT22;4024;52.172;5.378;2023-04-01T03:23:38;12.40;99.90
7958;DHT22;4024;52.172;5.378;2023-04-01T03:26:03;12.40;99.90
7958;DHT22;4024;52.172;5.378;2023-04-01T03:28:29;12.40;99.90
7958;DHT22;4024;52.172;5.378;2023-04-01T03:30:55;12.40;99.90
7958;DHT22;4024;52.172;5.378;2023-04-01T03:33:20;12.40;99.90
7958;DHT22;4024;52.172;5.378;2023-04-01T03:35:46;12.40;99.90
7958;DHT22;4024;52.172;5.378;2023-04-01T03:38:11;12.40;99.90
7958;DHT22;4024;52.172;5.378;2023-04-01T03:40:42;12.40;99.90
7958;DHT22;4024;52.172;5.378;2023-04-01T03:43:07;12.40;99.90
7958;DHT22;4024;52.172;5.378;2023-04-01T03:45:35;12.40;99.90
7958;DHT22;4024;52.172;5.378;2023-04-01T03:48:01;12.40;99.90
7958;DHT22;4024;52.172;5.378;2023-04-01T03:50:26;12.40;99.90
7958;DHT22;4024;52.172;5.378;2023-04-01T03:52:52;12.40;99.90
7958;DHT22;4024;52.172;5.378;2023-04-01T03:55:18;12.40;99.90
7958;DHT22;4024;52.172;5.378;2023-04-01T03:57:43;12.50;99.90
7958;DHT22;4024;52.172;5.378;2023-04-01T04:00:10;12.50;99.90
7958;DHT22;4024;52.172;5.378;2023-04-01T04:02:36;12.40;99.90
7958;DHT22;4024;52.172;5.378;2023-04-01T04:05:01;12.40;99.90
7958;DHT22;4024;52.172;5.378;2023-04-01T04:07:28;12.40;99.90
7958;DHT22;4024;52.172;5.378;2023-04-01T04:09:54;12.40;99.90
7958;DHT22;4024;52.172;5.378;2023-04-01T04:12:19;12.40;99.90
7958;DHT22;4024;52.172;5.378;2023-04-01T04:14:45;12.50;99.90
7958;DHT22;4024;52.172;5.378;2023-04-01T04:17:11;12.40;99.90
7958;DHT22;4024;52.172;5.378;2023-04-01T04:19:44;12.50;99.90
7958;DHT22;4024;52.172;5.378;2023-04-01T04:22:11;12.50;99.90
7958;DHT22;4024;52.172;5.378;2023-04-01T04:24:37;12.50;99.90
7958;DHT22;4024;52.172;5.378;2023-04-01T04:27:05;12.50;99.90
7958;DHT22;4024;52.172;5.378;2023-04-01T04:29:30;12.50;99.90
7958;DHT22;4024;52.172;5.378;2023-04-01T04:31:56;12.50;99.90
7958;DHT22;4024;52.172;5.378;2023-04-01T04:34:21;12.50;99.90
7958;DHT22;4024;52.172;5.378;2023-04-01T04:36:49;12.50;99.90
7958;DHT22;4024;52.172;5.378;2023-04-01T04:39:15;12.50;99.90
7958;DHT22;4024;52.172;5.378;2023-04-01T04:41:49;12.50;99.90
7958;DHT22;4024;52.172;5.378;2023-04-01T04:44:14;12.50;99.90
7958;DHT22;4024;52.172;5.378;2023-04-01T04:46:41;12.50;99.90
7958;DHT22;4024;52.172;5.378;2023-04-01T04:49:07;12.50;99.90
7958;DHT22;4024;52.172;5.378;2023-04-01T04:51:32;12.50;99.90
7958;DHT22;4024;52.172;5.378;2023-04-01T04:54:02;12.60;99.90
7958;DHT22;4024;52.172;5.378;2023-04-01T04:56:29;12.50;99.90
7958;DHT22;4024;52.172;5.378;2023-04-01T04:58:56;12.60;99.90
7958;DHT22;4024;52.172;5.378;2023-04-01T05:01:23;12.50;99.90
7958;DHT22;4024;52.172;5.378;2023-04-01T05:03:48;12.60;99.90
7958;DHT22;4024;52.172;5.378;2023-04-01T05:06:16;12.50;99.90
7958;DHT22;4024;52.172;5.378;2023-04-01T05:08:42;12.60;99.90
7958;DHT22;4024;52.172;5.378;2023-04-01T05:11:16;12.50;99.90
7958;DHT22;4024;52.172;5.378;2023-04-01T05:13:42;12.60;99.90
7958;DHT22;4024;52.172;5.378;2023-04-01T05:16:11;12.50;99.90
7958;DHT22;4024;52.172;5.378;2023-04-01T05:18:37;12.50;99.90
7958;DHT22;4024;52.172;5.378;2023-04-01T05:21:06;12.60;99.90
7958;DHT22;4024;52.172;5.378;2023-04-01T05:23:32;12.50;99.90
7958;DHT22;4024;52.172;5.378;2023-04-01T05:25:59;12.50;99.90
7958;DHT22;4024;52.172;5.378;2023-04-01T05:28:27;12.60;99.90
7958;DHT22;4024;52.172;5.378;2023-04-01T05:30:53;12.60;99.90
7958;DHT22;4024;52.172;5.378;2023-04-01T05:33:18;12.60;99.90
7958;DHT22;4024;52.172;5.378;2023-04-01T05:35:44;12.60;99.90
7958;DHT22;4024;52.172;5.378;2023-04-01T05:38:10;12.60;99.90
7958;DHT22;4024;52.172;5.378;2023-04-01T05:40:35;12.60;99.90
7958;DHT22;4024;52.172;5.378;2023-04-01T05:43:01;12.60;99.90
7958;DHT22;4024;52.172;5.378;2023-04-01T05:45:27;12.50;99.90
7958;DHT22;4024;52.172;5.378;2023-04-01T05:47:53;12.60;99.90
7958;DHT22;4024;52.172;5.378;2023-04-01T05:50:19;12.60;99.90
7958;DHT22;4024;52.172;5.378;2023-04-01T05:52:45;12.60;99.90
7958;DHT22;4024;52.172;5.378;2023-04-01T05:55:11;12.60;99.90
7958;DHT22;4024;52.172;5.378;2023-04-01T05:57:36;12.50;99.90
7958;DHT22;4024;52.172;5.378;2023-04-01T06:00:04;12.50;99.90
7958;DHT22;4024;52.172;5.378;2023-04-01T06:02:30;12.50;99.90
7958;DHT22;4024;52.172;5.378;2023-04-01T06:05:18;12.50;99.90
7958;DHT22;4024;52.172;5.378;2023-04-01T06:07:44;12.50;99.90
7958;DHT22;4024;52.172;5.378;2023-04-01T06:10:18;12.50;99.90
7958;DHT22;4024;52.172;5.378;2023-04-01T06:16:31;12.50;99.90
7958;DHT22;4024;52.172;5.378;2023-04-01T06:21:37;12.50;99.90
7958;DHT22;4024;52.172;5.378;2023-04-01T06:38:04;12.50;99.90
7958;DHT22;4024;52.172;5.378;2023-04-01T06:43:15;12.60;99.90
7958;DHT22;4024;52.172;5.378;2023-04-01T06:54:03;12.60;99.90
7958;DHT22;4024;52.172;5.378;2023-04-01T06:56:30;12.60;99.90
7958;DHT22;4024;52.172;5.378;2023-04-01T06:59:20;12.60;99.90
7958;DHT22;4024;52.172;5.378;2023-04-01T07:04:58;12.60;99.90
7958;DHT22;4024;52.172;5.378;2023-04-01T07:07:39;12.60;99.90
7958;DHT22;4024;52.172;5.378;2023-04-01T07:10:18;12.60;99.90
7958;DHT22;4024;52.172;5.378;2023-04-01T07:12:54;12.60;99.90
7958;DHT22;4024;52.172;5.378;2023-04-01T07:15:25;12.60;99.90
7958;DHT22;4024;52.172;5.378;2023-04-01T07:17:57;12.60;99.90
7958;DHT22;4024;52.172;5.378;2023-04-01T07:20:32;12.70;99.90
7958;DHT22;4024;52.172;5.378;2023-04-01T07:23:03;12.70;99.90
7958;DHT22;4024;52.172;5.378;2023-04-01T07:28:02;12.80;99.90
7958;DHT22;4024;52.172;5.378;2023-04-01T07:33:22;12.80;99.90
7958;DHT22;4024;52.172;5.378;2023-04-01T07:36:03;12.90;99.90
7958;DHT22;4024;52.172;5.378;2023-04-01T07:43:51;13.00;99.90
7958;DHT22;4024;52.172;5.378;2023-04-01T07:51:53;12.90;99.90
7958;DHT22;4024;52.172;5.378;2023-04-01T07:54:47;12.90;99.90
7958;DHT22;4024;52.172;5.378;2023-04-01T08:00:22;12.90;99.90
7958;DHT22;4024;52.172;5.378;2023-04-01T08:05:46;12.90;99.90
7958;DHT22;4024;52.172;5.378;2023-04-01T08:08:36;12.90;99.90
7958;DHT22;4024;52.172;5.378;2023-04-01T08:11:25;12.90;99.90
7958;DHT22;4024;52.172;5.378;2023-04-01T08:19:40;12.90;99.90
7958;DHT22;4024;52.172;5.378;2023-04-01T08:22:16;12.90;99.90
7958;DHT22;4024;52.172;5.378;2023-04-01T08:24:46;13.00;99.90
7958;DHT22;4024;52.172;5.378;2023-04-01T08:27:37;12.90;99.90
7958;DHT22;4024;52.172;5.378;2023-04-01T08:35:46;12.90;99.90
7958;DHT22;4024;52.172;5.378;2023-04-01T08:38:34;12.90;99.90
7958;DHT22;4024;52.172;5.378;2023-04-01T08:54:56;13.00;99.90
7958;DHT22;4024;52.172;5.378;2023-04-01T08:57:45;13.00;99.90
7958;DHT22;4024;52.172;5.378;2023-04-01T09:11:12;13.10;99.90
7958;DHT22;4024;52.172;5.378;2023-04-01T09:14:11;13.10;99.90
7958;DHT22;4024;52.172;5.378;2023-04-01T09:17:04;13.20;99.90
7958;DHT22;4024;52.172;5.378;2023-04-01T09:23:14;13.20;99.90
7958;DHT22;4024;52.172;5.378;2023-04-01T09:29:26;13.30;99.90
7958;DHT22;4024;52.172;5.378;2023-04-01T09:37:19;13.30;99.90
7958;DHT22;4024;52.172;5.378;2023-04-01T10:05:37;13.90;99.90
7958;DHT22;4024;52.172;5.378;2023-04-01T10:08:34;14.00;99.90
7958;DHT22;4024;52.172;5.378;2023-04-01T10:25:57;14.40;99.90
7958;DHT22;4024;52.172;5.378;2023-04-01T10:33:59;14.50;99.90
7958;DHT22;4024;52.172;5.378;2023-04-01T10:36:53;14.50;99.90
7958;DHT22;4024;52.172;5.378;2023-04-01T10:39:50;14.50;99.90
7958;DHT22;4024;52.172;5.378;2023-04-01T11:02:29;14.60;99.90
7958;DHT22;4024;52.172;5.378;2023-04-01T11:13:58;14.70;99.90
7958;DHT22;4024;52.172;5.378;2023-04-01T11:16:37;14.70;99.90
7958;DHT22;4024;52.172;5.378;2023-04-01T11:19:39;14.60;99.90
7958;DHT22;4024;52.172;5.378;2023-04-01T11:22:48;14.60;99.90
7958;DHT22;4024;52.172;5.378;2023-04-01T11:25:45;14.60;99.90
7958;DHT22;4024;52.172;5.378;2023-04-01T11:37:36;14.50;99.90
7958;DHT22;4024;52.172;5.378;2023-04-01T11:43:12;14.50;99.90
7958;DHT22;4024;52.172;5.378;2023-04-01T11:45:46;14.50;99.90
7958;DHT22;4024;52.172;5.378;2023-04-01T12:10:39;14.20;99.90
7958;DHT22;4024;52.172;5.378;2023-04-01T12:16:08;14.10;99.90
7958;DHT22;4024;52.172;5.378;2023-04-01T12:18:46;14.10;99.90
7958;DHT22;4024;52.172;5.378;2023-04-01T12:21:16;14.10;99.90
7958;DHT22;4024;52.172;5.378;2023-04-01T12:24:06;14.20;99.90
7958;DHT22;4024;52.172;5.378;2023-04-01T12:26:44;14.10;99.90
7958;DHT22;4024;52.172;5.378;2023-04-01T12:29:43;14.10;99.90
7958;DHT22;4024;52.172;5.378;2023-04-01T12:35:12;14.10;99.90
7958;DHT22;4024;52.172;5.378;2023-04-01T12:52:13;14.10;99.90
7958;DHT22;4024;52.172;5.378;2023-04-01T12:55:01;14.10;99.90
7958;DHT22;4024;52.172;5.378;2023-04-01T13:11:14;14.20;99.90
7958;DHT22;4024;52.172;5.378;2023-04-01T13:16:39;14.20;99.90
7958;DHT22;4024;52.172;5.378;2023-04-01T13:19:21;14.20;99.90
7958;DHT22;4024;52.172;5.378;2023-04-01T13:22:03;14.20;99.90
7958;DHT22;4024;52.172;5.378;2023-04-01T13:24:53;14.20;99.90
7958;DHT22;4024;52.172;5.378;2023-04-01T13:27:30;14.10;99.90
7958;DHT22;4024;52.172;5.378;2023-04-01T13:32:55;14.10;99.90
7958;DHT22;4024;52.172;5.378;2023-04-01T13:38:12;14.00;99.90
7958;DHT22;4024;52.172;5.378;2023-04-01T13:40:49;14.00;99.90
7958;DHT22;4024;52.172;5.378;2023-04-01T14:11:24;13.80;99.90
7958;DHT22;4024;52.172;5.378;2023-04-01T14:14:31;13.80;99.90
7958;DHT22;4024;52.172;5.378;2023-04-01T14:17:19;13.70;99.90
7958;DHT22;4024;52.172;5.378;2023-04-01T14:25:30;13.70;99.90
7958;DHT22;4024;52.172;5.378;2023-04-01T14:50:21;13.50;99.90
7958;DHT22;4024;52.172;5.378;2023-04-01T14:55:52;13.50;99.90
7958;DHT22;4024;52.172;5.378;2023-04-01T14:58:21;13.40;99.90
7958;DHT22;4024;52.172;5.378;2023-04-01T15:03:52;13.40;99.90
7958;DHT22;4024;52.172;5.378;2023-04-01T15:06:45;13.40;99.90
7958;DHT22;4024;52.172;5.378;2023-04-01T15:09:36;13.40;99.90
7958;DHT22;4024;52.172;5.378;2023-04-01T15:20:32;13.30;99.90
7958;DHT22;4024;52.172;5.378;2023-04-01T15:26:21;13.30;99.90
7958;DHT22;4024;52.172;5.378;2023-04-01T15:39:57;13.30;99.90
7958;DHT22;4024;52.172;5.378;2023-04-01T15:42:43;13.30;99.90
7958;DHT22;4024;52.172;5.378;2023-04-01T15:48:20;13.30;99.90
7958;DHT22;4024;52.172;5.378;2023-04-01T15:50:58;13.30;99.90
7958;DHT22;4024;52.172;5.378;2023-04-01T16:02:17;13.10;99.90
7958;DHT22;4024;52.172;5.378;2023-04-01T16:04:50;13.10;99.90
7958;DHT22;4024;52.172;5.378;2023-04-01T16:10:52;13.10;99.90
7958;DHT22;4024;52.172;5.378;2023-04-01T16:16:19;13.10;99.90
7958;DHT22;4024;52.172;5.378;2023-04-01T16:19:11;13.00;99.90
7958;DHT22;4024;52.172;5.378;2023-04-01T16:27:09;13.00;99.90
7958;DHT22;4024;52.172;5.378;2023-04-01T16:30:00;13.00;99.90
7958;DHT22;4024;52.172;5.378;2023-04-01T16:35:15;12.90;99.90
7958;DHT22;4024;52.172;5.378;2023-04-01T16:37:58;12.90;99.90
7958;DHT22;4024;52.172;5.378;2023-04-01T16:40:39;12.90;99.90
7958;DHT22;4024;52.172;5.378;2023-04-01T16:48:27;12.80;99.90
7958;DHT22;4024;52.172;5.378;2023-04-01T16:51:09;12.80;99.90
7958;DHT22;4024;52.172;5.378;2023-04-01T16:53:53;12.70;99.90
7958;DHT22;4024;52.172;5.378;2023-04-01T16:56:36;12.70;99.90
7958;DHT22;4024;52.172;5.378;2023-04-01T17:01:52;12.60;99.90
7958;DHT22;4024;52.172;5.378;2023-04-01T17:18:27;12.40;99.90
7958;DHT22;4024;52.172;5.378;2023-04-01T17:21:10;12.50;99.90
7958;DHT22;4024;52.172;5.378;2023-04-01T17:23:51;12.40;99.90
7958;DHT22;4024;52.172;5.378;2023-04-01T17:29:31;12.40;99.90
7958;DHT22;4024;52.172;5.378;2023-04-01T17:35:08;12.30;99.90
7958;DHT22;4024;52.172;5.378;2023-04-01T17:41:01;12.20;99.90
7958;DHT22;4024;52.172;5.378;2023-04-01T17:49:08;12.10;99.90
7958;DHT22;4024;52.172;5.378;2023-04-01T17:54:49;12.10;99.90
7958;DHT22;4024;52.172;5.378;2023-04-01T17:57:45;12.00;99.90
7958;DHT22;4024;52.172;5.378;2023-04-01T18:00:28;12.00;99.90
7958;DHT22;4024;52.172;5.378;2023-04-01T18:03:36;12.00;99.90
7958;DHT22;4024;52.172;5.378;2023-04-01T18:17:40;11.90;99.90
7958;DHT22;4024;52.172;5.378;2023-04-01T18:20:24;11.90;99.90
7958;DHT22;4024;52.172;5.378;2023-04-01T18:22:58;11.90;99.90
7958;DHT22;4024;52.172;5.378;2023-04-01T18:25:40;11.90;99.90
7958;DHT22;4024;52.172;5.378;2023-04-01T18:31:06;11.90;99.90
7958;DHT22;4024;52.172;5.378;2023-04-01T18:39:02;11.80;99.90
7958;DHT22;4024;52.172;5.378;2023-04-01T18:45:37;11.90;99.90
7958;DHT22;4024;52.172;5.378;2023-04-01T18:47:44;11.90;99.90
7958;DHT22;4024;52.172;5.378;2023-04-01T18:50:37;11.90;99.90
7958;DHT22;4024;52.172;5.378;2023-04-01T18:53:30;11.90;99.90
7958;DHT22;4024;52.172;5.378;2023-04-01T18:56:03;11.80;99.90
7958;DHT22;4024;52.172;5.378;2023-04-01T18:58:46;11.90;99.90
7958;DHT22;4024;52.172;5.378;2023-04-01T19:01:23;11.80;99.90
7958;DHT22;4024;52.172;5.378;2023-04-01T19:04:08;11.80;99.90
7958;DHT22;4024;52.172;5.378;2023-04-01T19:06:51;11.80;99.90
7958;DHT22;4024;52.172;5.378;2023-04-01T19:09:32;11.80;99.90
7958;DHT22;4024;52.172;5.378;2023-04-01T19:15:22;11.80;99.90
7958;DHT22;4024;52.172;5.378;2023-04-01T19:20:47;11.70;99.90
7958;DHT22;4024;52.172;5.378;2023-04-01T19:29:25;11.70;99.90
7958;DHT22;4024;52.172;5.378;2023-04-01T19:32:23;11.70;99.90
7958;DHT22;4024;52.172;5.378;2023-04-01T19:35:16;11.60;99.90
7958;DHT22;4024;52.172;5.378;2023-04-01T19:38:08;11.60;99.90
7958;DHT22;4024;52.172;5.378;2023-04-01T19:43:25;11.60;99.90
7958;DHT22;4024;52.172;5.378;2023-04-01T19:54:20;11.40;99.90
7958;DHT22;4024;52.172;5.378;2023-04-01T19:57:13;11.40;99.90
7958;DHT22;4024;52.172;5.378;2023-04-01T20:00:02;11.40;99.90
7958;DHT22;4024;52.172;5.378;2023-04-01T20:05:32;11.30;99.90
7958;DHT22;4024;52.172;5.378;2023-04-01T20:11:01;11.30;99.90
7958;DHT22;4024;52.172;5.378;2023-04-01T20:17:01;11.20;99.90
7958;DHT22;4024;52.172;5.378;2023-04-01T20:19:43;11.20;99.90
7958;DHT22;4024;52.172;5.378;2023-04-01T20:25:42;11.20;99.90
7958;DHT22;4024;52.172;5.378;2023-04-01T20:31:03;11.10;99.90
7958;DHT22;4024;52.172;5.378;2023-04-01T20:37:02;11.00;99.90
7958;DHT22;4024;52.172;5.378;2023-04-01T20:42:46;11.00;99.90
7958;DHT22;4024;52.172;5.378;2023-04-01T20:50:57;10.90;99.90
7958;DHT22;4024;52.172;5.378;2023-04-01T20:53:36;10.90;99.90
7958;DHT22;4024;52.172;5.378;2023-04-01T21:06:52;10.80;99.90
7958;DHT22;4024;52.172;5.378;2023-04-01T21:09:44;10.80;99.90
7958;DHT22;4024;52.172;5.378;2023-04-01T21:12:27;10.70;99.90
7958;DHT22;4024;52.172;5.378;2023-04-01T21:15:07;10.70;99.90
7958;DHT22;4024;52.172;5.378;2023-04-01T21:29:21;10.50;99.90
7958;DHT22;4024;52.172;5.378;2023-04-01T21:34:52;10.50;99.90
7958;DHT22;4024;52.172;5.378;2023-04-01T21:40:49;10.40;99.90
7958;DHT22;4024;52.172;5.378;2023-04-01T22:05:45;10.20;99.90
7958;DHT22;4024;52.172;5.378;2023-04-01T22:08:52;10.20;99.90
7958;DHT22;4024;52.172;5.378;2023-04-01T22:20:42;10.10;99.90
7958;DHT22;4024;52.172;5.378;2023-04-01T22:23:32;10.10;99.90
7958;DHT22;4024;52.172;5.378;2023-04-01T22:37:27;9.90;99.90
7958;DHT22;4024;52.172;5.378;2023-04-01T22:43:03;9.90;99.90
7958;DHT22;4024;52.172;5.378;2023-04-01T22:45:49;9.80;99.90
7958;DHT22;4024;52.172;5.378;2023-04-01T22:51:15;9.80;99.90
7958;DHT22;4024;52.172;5.378;2023-04-01T22:57:08;9.80;99.90
7958;DHT22;4024;52.172;5.378;2023-04-01T22:59:52;9.80;99.90
7958;DHT22;4024;52.172;5.378;2023-04-01T23:02:30;9.70;99.90
7958;DHT22;4024;52.172;5.378;2023-04-01T23:05:00;9.70;99.90
7958;DHT22;4024;52.172;5.378;2023-04-01T23:10:33;9.70;99.90
7958;DHT22;4024;52.172;5.378;2023-04-01T23:13:05;9.70;99.90
7958;DHT22;4024;52.172;5.378;2023-04-01T23:15:36;9.70;99.90
7958;DHT22;4024;52.172;5.378;2023-04-01T23:23:49;9.60;99.90
7958;DHT22;4024;52.172;5.378;2023-04-01T23:28:56;9.60;99.90
7958;DHT22;4024;52.172;5.378;2023-04-01T23:31:31;9.60;99.90
7958;DHT22;4024;52.172;5.378;2023-04-01T23:37:04;9.60;99.90
7958;DHT22;4024;52.172;5.378;2023-04-01T23:39:44;9.60;99.90
7958;DHT22;4024;52.172;5.378;2023-04-01T23:42:20;9.60;99.90
7958;DHT22;4024;52.172;5.378;2023-04-01T23:44:49;9.60;99.90
7958;DHT22;4024;52.172;5.378;2023-04-01T23:47:18;9.60;99.90
7958;DHT22;4024;52.172;5.378;2023-04-01T23:49:49;9.60;99.90
7958;DHT22;4024;52.172;5.378;2023-04-01T23:52:24;9.60;99.90
7958;DHT22;4024;52.172;5.378;2023-04-01T23:54:57;9.60;99.90
7958;DHT22;4024;52.172;5.378;2023-04-01T23:57:33;9.60;99.90
